TFFR Airport Information

Runway Information
Runway 12 Length 11499 ft width 148 ft
Elevation 5 ft Threshold 1312 ft Heading 101
Runway 30 Length 11499 ft Width 148 ft
Elevation 32 ft Threshold 820 ft Heading 281
Airport Frequencies
Type APP Name RAIZET APP Frequency 121.3 MHZ
Type ATIS Name ATIS Frequency 127.6 MHZ
Type GND Name GND Frequency 121.85 MHZ
Type TWR Name RAIZET TWR Frequency 118.4 MHZ
Airport Navaids
Type VOR-DME Name Pointe A Pitre Frequency 112900 KHZ
Type NDB Name Pointe A Pitre Frequency 385 KHZ
Airport Weather Information & NOTAM
ADDS - METARS form results

(1332 UTC 17 February 2019)
Data provider http://aviationweather.gov/metar/data/
 
METAR text: TFFR 171330Z AUTO 12015KT 9999 BKN026 BKN036 BKN043 27/21 Q1020 TEMPO 3000 SHRA SCT015TCU
Conditions at: TFFR (LE RAIZET , GP) observed 1330 UTC 17 February 2019
Temperature: 27.0°C (81°F)
Dewpoint: 21.0°C (70°F) [RH = 70%]
Pressure (altimeter): 30.12 inches Hg (1020.0 mb)
Winds: from the ESE (120 degrees) at 17 MPH (15 knots; 7.7 m/s)
Visibility: 6 or more miles (10+ km)
Ceiling: 2600 feet AGL
Clouds: broken clouds at 2600 feet AGL
broken clouds at 3600 feet AGL
broken clouds at 4300 feet AGL
Weather: no significant weather observed at this time

METAR text: TFFR 171300Z AUTO 12008KT 9999 SCT024 26/21 Q1019 TEMPO 3000 SHRA SCT015TCU
Conditions at: TFFR (LE RAIZET , GP) observed 1300 UTC 17 February 2019
Temperature: 26.0°C (79°F)
Dewpoint: 21.0°C (70°F) [RH = 74%]
Pressure (altimeter): 30.09 inches Hg (1019.0 mb)
Winds: from the ESE (120 degrees) at 9 MPH (8 knots; 4.1 m/s)
Visibility: 6 or more miles (10+ km)
Ceiling: at least 12,000 feet AGL
Clouds: scattered clouds at 2400 feet AGL
Weather: no significant weather observed at this time

Forecast for: TFFR (LE RAIZET , GP)
Text: TAF TFFR 171000Z 1712/1812 10008KT 9999 SCT034
Forecast period: 1200 UTC 17 February 2019 to 1200 UTC 18 February 2019
Forecast type: FROM: standard forecast or significant change
Winds: from the E (100 degrees) at 9 MPH (8 knots; 4.1 m/s)
Visibility: 6 or more miles 10+ km)
Ceiling: at least 12,000 feet AGL
Clouds: scattered clouds at 3400 feet AGL
Weather: no significant weather forecast for this period
Text: PROB30
Forecast period: 1300 to 1500 UTC 17 February 2019
Forecast type: TEMPORARY: The following changes expected for less than half the time period
Visibility: 1.86 miles (2.99 km)
Ceiling: at least 12,000 feet AGL
Clouds: scattered clouds at 1500 feet AGL
Weather: SHRA  (rain showers)
Text: TEMPO 1713/1715 3000 SHRA SCT015TCU
Forecast period: 0600 to 1200 UTC 18 February 2019
Forecast type: TEMPORARY: The following changes expected for less than half the time period
Visibility: 2.49 miles (4.01 km)
Ceiling: at least 12,000 feet AGL
Clouds: scattered clouds at 1500 feet AGL
Weather: SHRA  (rain showers)